Terminal Aerodrome Forecast
Issued by NWS

Home | Current Version | Previous Version | Text Only | Print | Product List | Glossary Off
Versions: 1 2 3 4 5 6 7 8 9 10 11 12 13 14 15 16 17 18 19 20 21 22 23 24 25 26

731
FTUS43 KABR 081138
TAFATY
TAF
KATY 081138Z 0812/0912 34024G33KT P6SM OVC025
      TEMPO 0812/0816 3SM -SN
     FM081900 34022G32KT P6SM SCT250
     FM090200 34014KT P6SM BKN150=

USA.gov is the U.S. government's official web portal to all federal, state and local government web resources and services.